sensor_id;sensor_type;location;lat;lon;timestamp;P1;durP1;ratioP1;P2;durP2;ratioP2
28481;SDS011;15703;49.588;6.260;2022-11-20T00:01:04;18.13;;;10.70;;
28481;SDS011;15703;49.588;6.260;2022-11-20T00:03:26;12.20;;;10.73;;
28481;SDS011;15703;49.588;6.260;2022-11-20T00:05:49;15.17;;;10.07;;
28481;SDS011;15703;49.588;6.260;2022-11-20T00:08:11;11.30;;;10.13;;
28481;SDS011;15703;49.588;6.260;2022-11-20T00:10:35;12.07;;;10.00;;
28481;SDS011;15703;49.588;6.260;2022-11-20T00:12:58;12.77;;;10.50;;
28481;SDS011;15703;49.588;6.260;2022-11-20T00:15:20;14.60;;;11.17;;
28481;SDS011;15703;49.588;6.260;2022-11-20T00:17:43;14.83;;;10.60;;
28481;SDS011;15703;49.588;6.260;2022-11-20T00:20:05;12.63;;;10.60;;
28481;SDS011;15703;49.588;6.260;2022-11-20T00:22:28;12.33;;;10.73;;
28481;SDS011;15703;49.588;6.260;2022-11-20T00:24:50;12.07;;;10.87;;
28481;SDS011;15703;49.588;6.260;2022-11-20T00:27:13;12.97;;;11.57;;
28481;SDS011;15703;49.588;6.260;2022-11-20T00:29:35;13.53;;;10.07;;
28481;SDS011;15703;49.588;6.260;2022-11-20T00:31:57;18.83;;;11.00;;
28481;SDS011;15703;49.588;6.260;2022-11-20T00:34:19;13.83;;;10.97;;
28481;SDS011;15703;49.588;6.260;2022-11-20T00:36:41;12.97;;;10.87;;
28481;SDS011;15703;49.588;6.260;2022-11-20T00:39:04;13.60;;;11.23;;
28481;SDS011;15703;49.588;6.260;2022-11-20T00:41:27;14.00;;;10.70;;
28481;SDS011;15703;49.588;6.260;2022-11-20T00:43:50;14.57;;;10.90;;
28481;SDS011;15703;49.588;6.260;2022-11-20T00:46:15;13.53;;;10.67;;
28481;SDS011;15703;49.588;6.260;2022-11-20T00:48:38;16.73;;;10.23;;
28481;SDS011;15703;49.588;6.260;2022-11-20T00:51:01;14.40;;;10.67;;
28481;SDS011;15703;49.588;6.260;2022-11-20T00:53:24;14.20;;;10.33;;
28481;SDS011;15703;49.588;6.260;2022-11-20T00:55:56;13.10;;;10.57;;
28481;SDS011;15703;49.588;6.260;2022-11-20T00:58:19;12.77;;;10.50;;
28481;SDS011;15703;49.588;6.260;2022-11-20T01:00:41;14.43;;;10.73;;
28481;SDS011;15703;49.588;6.260;2022-11-20T01:03:03;12.73;;;10.50;;
28481;SDS011;15703;49.588;6.260;2022-11-20T01:05:26;17.03;;;10.70;;
28481;SDS011;15703;49.588;6.260;2022-11-20T01:07:48;12.00;;;9.93;;
28481;SDS011;15703;49.588;6.260;2022-11-20T01:10:10;12.53;;;9.90;;
28481;SDS011;15703;49.588;6.260;2022-11-20T01:12:32;12.03;;;9.40;;
28481;SDS011;15703;49.588;6.260;2022-11-20T01:14:55;13.03;;;9.90;;
28481;SDS011;15703;49.588;6.260;2022-11-20T01:17:23;13.97;;;9.53;;
28481;SDS011;15703;49.588;6.260;2022-11-20T01:19:47;12.33;;;10.67;;
28481;SDS011;15703;49.588;6.260;2022-11-20T01:22:10;13.13;;;10.03;;
28481;SDS011;15703;49.588;6.260;2022-11-20T01:24:32;14.33;;;9.77;;
28481;SDS011;15703;49.588;6.260;2022-11-20T01:26:54;13.53;;;9.67;;
28481;SDS011;15703;49.588;6.260;2022-11-20T01:29:21;13.87;;;10.03;;
28481;SDS011;15703;49.588;6.260;2022-11-20T01:31:44;14.53;;;9.70;;
28481;SDS011;15703;49.588;6.260;2022-11-20T01:34:08;13.17;;;10.30;;
28481;SDS011;15703;49.588;6.260;2022-11-20T01:36:31;13.60;;;10.30;;
28481;SDS011;15703;49.588;6.260;2022-11-20T01:38:55;13.33;;;10.27;;
28481;SDS011;15703;49.588;6.260;2022-11-20T01:41:17;11.63;;;10.13;;
28481;SDS011;15703;49.588;6.260;2022-11-20T01:43:59;13.07;;;10.63;;
28481;SDS011;15703;49.588;6.260;2022-11-20T01:46:21;10.77;;;9.67;;
28481;SDS011;15703;49.588;6.260;2022-11-20T01:48:45;12.40;;;10.13;;
28481;SDS011;15703;49.588;6.260;2022-11-20T01:51:13;14.13;;;10.77;;
28481;SDS011;15703;49.588;6.260;2022-11-20T01:53:37;12.37;;;10.87;;
28481;SDS011;15703;49.588;6.260;2022-11-20T01:56:00;15.20;;;10.47;;
28481;SDS011;15703;49.588;6.260;2022-11-20T01:58:25;12.70;;;10.43;;
28481;SDS011;15703;49.588;6.260;2022-11-20T02:00:49;13.63;;;10.93;;
28481;SDS011;15703;49.588;6.260;2022-11-20T02:03:12;15.00;;;12.00;;
28481;SDS011;15703;49.588;6.260;2022-11-20T02:05:52;12.57;;;10.50;;
28481;SDS011;15703;49.588;6.260;2022-11-20T02:08:17;13.27;;;11.33;;
28481;SDS011;15703;49.588;6.260;2022-11-20T02:10:41;12.87;;;11.57;;
28481;SDS011;15703;49.588;6.260;2022-11-20T02:13:03;13.97;;;11.27;;
28481;SDS011;15703;49.588;6.260;2022-11-20T02:15:44;16.73;;;12.07;;
28481;SDS011;15703;49.588;6.260;2022-11-20T02:18:07;17.03;;;11.93;;
28481;SDS011;15703;49.588;6.260;2022-11-20T02:20:31;16.87;;;12.33;;
28481;SDS011;15703;49.588;6.260;2022-11-20T02:22:55;14.67;;;12.63;;
28481;SDS011;15703;49.588;6.260;2022-11-20T02:25:28;14.30;;;12.07;;
28481;SDS011;15703;49.588;6.260;2022-11-20T02:27:51;17.37;;;12.57;;
28481;SDS011;15703;49.588;6.260;2022-11-20T02:30:14;14.90;;;11.57;;
28481;SDS011;15703;49.588;6.260;2022-11-20T02:32:36;14.23;;;11.70;;
28481;SDS011;15703;49.588;6.260;2022-11-20T02:35:09;15.57;;;11.50;;
28481;SDS011;15703;49.588;6.260;2022-11-20T02:37:32;16.03;;;12.33;;
28481;SDS011;15703;49.588;6.260;2022-11-20T02:39:56;14.93;;;12.43;;
28481;SDS011;15703;49.588;6.260;2022-11-20T02:42:18;16.10;;;11.70;;
28481;SDS011;15703;49.588;6.260;2022-11-20T02:44:41;13.23;;;10.93;;
28481;SDS011;15703;49.588;6.260;2022-11-20T02:47:15;13.80;;;10.77;;
28481;SDS011;15703;49.588;6.260;2022-11-20T02:49:37;14.13;;;10.50;;
28481;SDS011;15703;49.588;6.260;2022-11-20T02:52:00;12.73;;;10.53;;
28481;SDS011;15703;49.588;6.260;2022-11-20T02:54:22;12.23;;;10.97;;
28481;SDS011;15703;49.588;6.260;2022-11-20T02:56:45;14.87;;;10.57;;
28481;SDS011;15703;49.588;6.260;2022-11-20T02:59:07;12.93;;;10.13;;
28481;SDS011;15703;49.588;6.260;2022-11-20T03:01:29;11.93;;;9.50;;
28481;SDS011;15703;49.588;6.260;2022-11-20T03:03:52;14.10;;;9.77;;
28481;SDS011;15703;49.588;6.260;2022-11-20T03:06:16;12.20;;;10.00;;
28481;SDS011;15703;49.588;6.260;2022-11-20T03:08:38;11.13;;;9.50;;
28481;SDS011;15703;49.588;6.260;2022-11-20T03:11:04;10.27;;;9.27;;
28481;SDS011;15703;49.588;6.260;2022-11-20T03:13:27;12.23;;;8.87;;
28481;SDS011;15703;49.588;6.260;2022-11-20T03:15:49;11.13;;;9.00;;
28481;SDS011;15703;49.588;6.260;2022-11-20T03:18:11;10.03;;;9.00;;
28481;SDS011;15703;49.588;6.260;2022-11-20T03:20:35;13.33;;;8.87;;
28481;SDS011;15703;49.588;6.260;2022-11-20T03:22:57;9.43;;;8.37;;
28481;SDS011;15703;49.588;6.260;2022-11-20T03:25:20;9.77;;;8.60;;
28481;SDS011;15703;49.588;6.260;2022-11-20T03:27:43;9.43;;;8.53;;
28481;SDS011;15703;49.588;6.260;2022-11-20T03:30:06;9.37;;;8.47;;
28481;SDS011;15703;49.588;6.260;2022-11-20T03:32:29;9.07;;;8.10;;
28481;SDS011;15703;49.588;6.260;2022-11-20T03:34:53;9.97;;;8.33;;
28481;SDS011;15703;49.588;6.260;2022-11-20T03:37:16;10.27;;;8.53;;
28481;SDS011;15703;49.588;6.260;2022-11-20T03:39:38;9.00;;;8.17;;
28481;SDS011;15703;49.588;6.260;2022-11-20T03:42:04;10.87;;;8.67;;
28481;SDS011;15703;49.588;6.260;2022-11-20T03:44:46;10.03;;;8.93;;
28481;SDS011;15703;49.588;6.260;2022-11-20T03:47:09;9.70;;;8.53;;
28481;SDS011;15703;49.588;6.260;2022-11-20T03:49:31;10.50;;;9.23;;
28481;SDS011;15703;49.588;6.260;2022-11-20T03:51:54;12.03;;;10.83;;
28481;SDS011;15703;49.588;6.260;2022-11-20T03:54:17;11.13;;;10.00;;
28481;SDS011;15703;49.588;6.260;2022-11-20T03:56:48;12.43;;;11.13;;
28481;SDS011;15703;49.588;6.260;2022-11-20T03:59:11;13.37;;;11.53;;
28481;SDS011;15703;49.588;6.260;2022-11-20T04:01:36;13.47;;;10.60;;
28481;SDS011;15703;49.588;6.260;2022-11-20T04:03:59;14.53;;;11.70;;
28481;SDS011;15703;49.588;6.260;2022-11-20T04:06:36;13.80;;;11.60;;
28481;SDS011;15703;49.588;6.260;2022-11-20T04:08:59;13.33;;;11.93;;
28481;SDS011;15703;49.588;6.260;2022-11-20T04:11:30;13.90;;;12.20;;
28481;SDS011;15703;49.588;6.260;2022-11-20T04:13:56;16.57;;;13.60;;
28481;SDS011;15703;49.588;6.260;2022-11-20T04:16:23;16.93;;;13.03;;
28481;SDS011;15703;49.588;6.260;2022-11-20T04:18:46;19.20;;;13.27;;
28481;SDS011;15703;49.588;6.260;2022-11-20T04:21:12;19.03;;;14.10;;
28481;SDS011;15703;49.588;6.260;2022-11-20T04:23:38;17.37;;;14.20;;
28481;SDS011;15703;49.588;6.260;2022-11-20T04:26:02;18.80;;;14.20;;
28481;SDS011;15703;49.588;6.260;2022-11-20T04:28:24;21.90;;;16.03;;
28481;SDS011;15703;49.588;6.260;2022-11-20T04:30:47;17.83;;;14.33;;
28481;SDS011;15703;49.588;6.260;2022-11-20T04:33:18;20.33;;;15.30;;
28481;SDS011;15703;49.588;6.260;2022-11-20T04:35:44;17.33;;;13.80;;
28481;SDS011;15703;49.588;6.260;2022-11-20T04:38:09;17.30;;;14.63;;
28481;SDS011;15703;49.588;6.260;2022-11-20T04:40:34;16.10;;;13.37;;
28481;SDS011;15703;49.588;6.260;2022-11-20T04:42:57;16.73;;;14.20;;
28481;SDS011;15703;49.588;6.260;2022-11-20T04:45:32;15.70;;;13.53;;
28481;SDS011;15703;49.588;6.260;2022-11-20T04:48:09;16.60;;;14.27;;
28481;SDS011;15703;49.588;6.260;2022-11-20T04:50:32;19.37;;;14.60;;
28481;SDS011;15703;49.588;6.260;2022-11-20T04:53:00;18.83;;;13.70;;
28481;SDS011;15703;49.588;6.260;2022-11-20T04:55:22;19.03;;;13.27;;
28481;SDS011;15703;49.588;6.260;2022-11-20T04:57:45;20.60;;;15.17;;
28481;SDS011;15703;49.588;6.260;2022-11-20T05:00:12;16.53;;;13.60;;
28481;SDS011;15703;49.588;6.260;2022-11-20T05:02:35;19.80;;;14.97;;
28481;SDS011;15703;49.588;6.260;2022-11-20T05:04:57;20.00;;;15.07;;
28481;SDS011;15703;49.588;6.260;2022-11-20T05:07:20;20.10;;;15.00;;
28481;SDS011;15703;49.588;6.260;2022-11-20T05:09:43;19.90;;;15.03;;
28481;SDS011;15703;49.588;6.260;2022-11-20T05:12:09;19.10;;;15.67;;
28481;SDS011;15703;49.588;6.260;2022-11-20T05:14:32;22.00;;;15.77;;
28481;SDS011;15703;49.588;6.260;2022-11-20T05:16:54;18.70;;;15.53;;
28481;SDS011;15703;49.588;6.260;2022-11-20T05:19:17;19.97;;;14.73;;
28481;SDS011;15703;49.588;6.260;2022-11-20T05:21:40;19.27;;;14.80;;
28481;SDS011;15703;49.588;6.260;2022-11-20T05:24:03;20.13;;;16.13;;
28481;SDS011;15703;49.588;6.260;2022-11-20T05:26:26;17.90;;;14.77;;
28481;SDS011;15703;49.588;6.260;2022-11-20T05:28:48;17.33;;;14.37;;
28481;SDS011;15703;49.588;6.260;2022-11-20T05:31:13;18.40;;;14.77;;
28481;SDS011;15703;49.588;6.260;2022-11-20T05:33:36;19.97;;;15.17;;
28481;SDS011;15703;49.588;6.260;2022-11-20T05:35:59;17.20;;;15.10;;
28481;SDS011;15703;49.588;6.260;2022-11-20T05:38:27;20.30;;;14.60;;
28481;SDS011;15703;49.588;6.260;2022-11-20T05:40:50;19.37;;;13.93;;
28481;SDS011;15703;49.588;6.260;2022-11-20T05:43:13;17.40;;;14.33;;
28481;SDS011;15703;49.588;6.260;2022-11-20T05:45:36;17.67;;;14.23;;
28481;SDS011;15703;49.588;6.260;2022-11-20T05:47:59;19.93;;;14.80;;
28481;SDS011;15703;49.588;6.260;2022-11-20T05:50:21;17.70;;;14.40;;
28481;SDS011;15703;49.588;6.260;2022-11-20T05:52:44;15.77;;;13.97;;
28481;SDS011;15703;49.588;6.260;2022-11-20T05:55:08;18.80;;;14.20;;
28481;SDS011;15703;49.588;6.260;2022-11-20T05:57:30;18.23;;;14.93;;
28481;SDS011;15703;49.588;6.260;2022-11-20T05:59:53;16.20;;;14.20;;
28481;SDS011;15703;49.588;6.260;2022-11-20T06:02:15;15.70;;;13.53;;
28481;SDS011;15703;49.588;6.260;2022-11-20T06:04:38;19.80;;;14.13;;
28481;SDS011;15703;49.588;6.260;2022-11-20T06:07:01;16.40;;;13.33;;
28481;SDS011;15703;49.588;6.260;2022-11-20T06:09:24;17.93;;;13.80;;
28481;SDS011;15703;49.588;6.260;2022-11-20T06:11:49;18.47;;;13.83;;
28481;SDS011;15703;49.588;6.260;2022-11-20T06:14:12;16.40;;;13.37;;
28481;SDS011;15703;49.588;6.260;2022-11-20T06:16:34;17.27;;;13.73;;
28481;SDS011;15703;49.588;6.260;2022-11-20T06:18:57;15.20;;;13.03;;
28481;SDS011;15703;49.588;6.260;2022-11-20T06:21:20;15.70;;;12.90;;
28481;SDS011;15703;49.588;6.260;2022-11-20T06:23:43;16.73;;;12.50;;
28481;SDS011;15703;49.588;6.260;2022-11-20T06:26:12;17.00;;;13.03;;
28481;SDS011;15703;49.588;6.260;2022-11-20T06:28:35;16.23;;;12.63;;
28481;SDS011;15703;49.588;6.260;2022-11-20T06:30:58;14.60;;;12.87;;
28481;SDS011;15703;49.588;6.260;2022-11-20T06:33:20;13.67;;;12.27;;
28481;SDS011;15703;49.588;6.260;2022-11-20T06:35:48;15.83;;;11.97;;
28481;SDS011;15703;49.588;6.260;2022-11-20T06:38:15;13.27;;;11.60;;
28481;SDS011;15703;49.588;6.260;2022-11-20T06:40:41;12.03;;;10.83;;
28481;SDS011;15703;49.588;6.260;2022-11-20T06:43:04;11.87;;;10.67;;
28481;SDS011;15703;49.588;6.260;2022-11-20T06:45:27;12.00;;;10.73;;
28481;SDS011;15703;49.588;6.260;2022-11-20T06:47:49;11.90;;;10.47;;
28481;SDS011;15703;49.588;6.260;2022-11-20T06:50:14;12.67;;;10.20;;
28481;SDS011;15703;49.588;6.260;2022-11-20T06:52:45;10.27;;;9.27;;
28481;SDS011;15703;49.588;6.260;2022-11-20T06:55:07;10.80;;;9.43;;
28481;SDS011;15703;49.588;6.260;2022-11-20T06:57:30;12.73;;;9.23;;
28481;SDS011;15703;49.588;6.260;2022-11-20T06:59:52;10.97;;;9.33;;
28481;SDS011;15703;49.588;6.260;2022-11-20T07:02:15;10.93;;;8.70;;
28481;SDS011;15703;49.588;6.260;2022-11-20T07:04:40;11.80;;;9.57;;
28481;SDS011;15703;49.588;6.260;2022-11-20T07:07:03;13.27;;;9.63;;
28481;SDS011;15703;49.588;6.260;2022-11-20T07:09:27;11.70;;;9.97;;
28481;SDS011;15703;49.588;6.260;2022-11-20T07:11:52;10.17;;;9.17;;
28481;SDS011;15703;49.588;6.260;2022-11-20T07:14:14;10.57;;;9.53;;
28481;SDS011;15703;49.588;6.260;2022-11-20T07:16:37;10.73;;;9.40;;
28481;SDS011;15703;49.588;6.260;2022-11-20T07:19:00;12.77;;;10.50;;
28481;SDS011;15703;49.588;6.260;2022-11-20T07:21:22;10.30;;;9.20;;
28481;SDS011;15703;49.588;6.260;2022-11-20T07:23:47;12.53;;;10.03;;
28481;SDS011;15703;49.588;6.260;2022-11-20T07:26:12;10.97;;;9.70;;
28481;SDS011;15703;49.588;6.260;2022-11-20T07:28:35;10.77;;;9.60;;
28481;SDS011;15703;49.588;6.260;2022-11-20T07:30:58;13.00;;;10.10;;
28481;SDS011;15703;49.588;6.260;2022-11-20T07:33:21;12.50;;;10.33;;
28481;SDS011;15703;49.588;6.260;2022-11-20T07:35:44;13.93;;;10.00;;
28481;SDS011;15703;49.588;6.260;2022-11-20T07:38:07;10.77;;;9.60;;
28481;SDS011;15703;49.588;6.260;2022-11-20T07:40:30;14.90;;;10.33;;
28481;SDS011;15703;49.588;6.260;2022-11-20T07:42:53;12.23;;;10.17;;
28481;SDS011;15703;49.588;6.260;2022-11-20T07:45:20;13.03;;;10.40;;
28481;SDS011;15703;49.588;6.260;2022-11-20T07:47:42;12.67;;;10.37;;
28481;SDS011;15703;49.588;6.260;2022-11-20T07:50:05;11.80;;;9.60;;
28481;SDS011;15703;49.588;6.260;2022-11-20T07:52:28;12.97;;;9.93;;
28481;SDS011;15703;49.588;6.260;2022-11-20T07:54:54;13.47;;;9.50;;
28481;SDS011;15703;49.588;6.260;2022-11-20T07:57:16;11.57;;;10.13;;
28481;SDS011;15703;49.588;6.260;2022-11-20T07:59:48;10.57;;;9.20;;
28481;SDS011;15703;49.588;6.260;2022-11-20T08:02:11;11.07;;;9.37;;
28481;SDS011;15703;49.588;6.260;2022-11-20T08:04:33;11.20;;;9.27;;
28481;SDS011;15703;49.588;6.260;2022-11-20T08:06:59;11.57;;;9.70;;
28481;SDS011;15703;49.588;6.260;2022-11-20T08:09:22;12.87;;;9.97;;
28481;SDS011;15703;49.588;6.260;2022-11-20T08:11:45;11.63;;;10.00;;
28481;SDS011;15703;49.588;6.260;2022-11-20T08:14:26;11.07;;;9.67;;
28481;SDS011;15703;49.588;6.260;2022-11-20T08:16:49;12.13;;;8.00;;
28481;SDS011;15703;49.588;6.260;2022-11-20T08:19:20;8.40;;;7.33;;
28481;SDS011;15703;49.588;6.260;2022-11-20T08:21:44;8.20;;;7.40;;
28481;SDS011;15703;49.588;6.260;2022-11-20T08:24:06;9.00;;;7.03;;
28481;SDS011;15703;49.588;6.260;2022-11-20T08:26:29;8.87;;;7.80;;
28481;SDS011;15703;49.588;6.260;2022-11-20T08:28:55;11.17;;;7.20;;
28481;SDS011;15703;49.588;6.260;2022-11-20T08:31:18;10.73;;;7.43;;
28481;SDS011;15703;49.588;6.260;2022-11-20T08:33:40;8.40;;;7.53;;
28481;SDS011;15703;49.588;6.260;2022-11-20T08:36:03;11.13;;;8.23;;
28481;SDS011;15703;49.588;6.260;2022-11-20T08:38:29;10.60;;;7.53;;
28481;SDS011;15703;49.588;6.260;2022-11-20T08:40:56;10.63;;;8.27;;
28481;SDS011;15703;49.588;6.260;2022-11-20T08:43:38;10.70;;;8.17;;
28481;SDS011;15703;49.588;6.260;2022-11-20T08:46:01;7.80;;;7.00;;
28481;SDS011;15703;49.588;6.260;2022-11-20T08:48:23;8.93;;;7.60;;
28481;SDS011;15703;49.588;6.260;2022-11-20T08:50:46;12.47;;;7.43;;
28481;SDS011;15703;49.588;6.260;2022-11-20T08:53:09;8.57;;;7.67;;
28481;SDS011;15703;49.588;6.260;2022-11-20T08:55:32;9.47;;;7.27;;
28481;SDS011;15703;49.588;6.260;2022-11-20T08:57:57;8.67;;;6.13;;
28481;SDS011;15703;49.588;6.260;2022-11-20T09:00:19;7.70;;;6.77;;
28481;SDS011;15703;49.588;6.260;2022-11-20T09:02:41;8.47;;;6.53;;
28481;SDS011;15703;49.588;6.260;2022-11-20T09:05:07;10.27;;;6.50;;
28481;SDS011;15703;49.588;6.260;2022-11-20T09:07:30;7.97;;;6.67;;
28481;SDS011;15703;49.588;6.260;2022-11-20T09:09:53;7.70;;;6.70;;
28481;SDS011;15703;49.588;6.260;2022-11-20T09:12:35;10.30;;;6.77;;
28481;SDS011;15703;49.588;6.260;2022-11-20T09:14:58;14.20;;;8.70;;
28481;SDS011;15703;49.588;6.260;2022-11-20T09:17:26;10.27;;;7.03;;
28481;SDS011;15703;49.588;6.260;2022-11-20T09:19:49;8.37;;;6.77;;
28481;SDS011;15703;49.588;6.260;2022-11-20T09:22:11;11.33;;;6.30;;
28481;SDS011;15703;49.588;6.260;2022-11-20T09:24:34;6.57;;;5.30;;
28481;SDS011;15703;49.588;6.260;2022-11-20T09:26:56;7.43;;;4.93;;
28481;SDS011;15703;49.588;6.260;2022-11-20T09:29:19;6.53;;;4.40;;
28481;SDS011;15703;49.588;6.260;2022-11-20T09:31:42;9.83;;;4.30;;
28481;SDS011;15703;49.588;6.260;2022-11-20T09:34:05;6.80;;;3.73;;
28481;SDS011;15703;49.588;6.260;2022-11-20T09:36:34;6.80;;;3.87;;
28481;SDS011;15703;49.588;6.260;2022-11-20T09:38:57;9.80;;;4.33;;
28481;SDS011;15703;49.588;6.260;2022-11-20T09:41:36;4.93;;;3.90;;
28481;SDS011;15703;49.588;6.260;2022-11-20T09:46:46;5.60;;;3.63;;
28481;SDS011;15703;49.588;6.260;2022-11-20T09:49:21;4.90;;;3.37;;
28481;SDS011;15703;49.588;6.260;2022-11-20T09:54:31;6.77;;;3.83;;
28481;SDS011;15703;49.588;6.260;2022-11-20T09:56:59;4.50;;;3.33;;
28481;SDS011;15703;49.588;6.260;2022-11-20T10:04:48;6.77;;;4.00;;
28481;SDS011;15703;49.588;6.260;2022-11-20T10:07:13;5.60;;;4.00;;
28481;SDS011;15703;49.588;6.260;2022-11-20T10:09:55;7.80;;;3.73;;
28481;SDS011;15703;49.588;6.260;2022-11-20T10:25:12;6.07;;;3.93;;
28481;SDS011;15703;49.588;6.260;2022-11-20T10:32:36;8.60;;;4.17;;
28481;SDS011;15703;49.588;6.260;2022-11-20T10:37:42;5.23;;;4.03;;
28481;SDS011;15703;49.588;6.260;2022-11-20T10:45:53;6.97;;;3.80;;
28481;SDS011;15703;49.588;6.260;2022-11-20T10:48:20;5.43;;;3.20;;
28481;SDS011;15703;49.588;6.260;2022-11-20T10:50:49;5.63;;;3.30;;
28481;SDS011;15703;49.588;6.260;2022-11-20T10:56:16;5.67;;;3.40;;
28481;SDS011;15703;49.588;6.260;2022-11-20T11:01:05;5.57;;;3.80;;
28481;SDS011;15703;49.588;6.260;2022-11-20T11:03:29;7.47;;;3.30;;
28481;SDS011;15703;49.588;6.260;2022-11-20T11:06:02;7.67;;;3.23;;
28481;SDS011;15703;49.588;6.260;2022-11-20T11:08:26;4.97;;;2.80;;
28481;SDS011;15703;49.588;6.260;2022-11-20T11:10:57;3.43;;;2.80;;
28481;SDS011;15703;49.588;6.260;2022-11-20T11:13:24;5.80;;;3.13;;
28481;SDS011;15703;49.588;6.260;2022-11-20T11:15:47;6.20;;;2.53;;
28481;SDS011;15703;49.588;6.260;2022-11-20T11:18:10;4.70;;;3.17;;
28481;SDS011;15703;49.588;6.260;2022-11-20T11:20:33;4.30;;;2.93;;
28481;SDS011;15703;49.588;6.260;2022-11-20T11:22:56;4.97;;;2.77;;
28481;SDS011;15703;49.588;6.260;2022-11-20T11:25:23;4.40;;;3.00;;
28481;SDS011;15703;49.588;6.260;2022-11-20T11:27:47;5.77;;;3.10;;
28481;SDS011;15703;49.588;6.260;2022-11-20T11:30:13;4.73;;;2.93;;
28481;SDS011;15703;49.588;6.260;2022-11-20T11:32:39;4.17;;;2.40;;
28481;SDS011;15703;49.588;6.260;2022-11-20T11:35:17;4.67;;;2.80;;
28481;SDS011;15703;49.588;6.260;2022-11-20T11:37:40;6.40;;;2.97;;
28481;SDS011;15703;49.588;6.260;2022-11-20T11:40:12;3.50;;;2.70;;
28481;SDS011;15703;49.588;6.260;2022-11-20T11:42:53;2.67;;;2.47;;
28481;SDS011;15703;49.588;6.260;2022-11-20T11:45:16;3.43;;;2.50;;
28481;SDS011;15703;49.588;6.260;2022-11-20T11:50:17;4.37;;;2.37;;
28481;SDS011;15703;49.588;6.260;2022-11-20T11:55:07;4.47;;;2.50;;
28481;SDS011;15703;49.588;6.260;2022-11-20T12:00:03;5.80;;;2.30;;
28481;SDS011;15703;49.588;6.260;2022-11-20T12:05:14;6.63;;;2.50;;
28481;SDS011;15703;49.588;6.260;2022-11-20T12:07:46;7.47;;;2.30;;
28481;SDS011;15703;49.588;6.260;2022-11-20T12:12:52;5.53;;;2.20;;
28481;SDS011;15703;49.588;6.260;2022-11-20T12:15:22;5.30;;;1.80;;
28481;SDS011;15703;49.588;6.260;2022-11-20T12:17:45;4.80;;;2.47;;
28481;SDS011;15703;49.588;6.260;2022-11-20T12:20:13;2.30;;;2.10;;
28481;SDS011;15703;49.588;6.260;2022-11-20T12:22:41;6.10;;;2.60;;
28481;SDS011;15703;49.588;6.260;2022-11-20T12:27:41;4.40;;;2.37;;
28481;SDS011;15703;49.588;6.260;2022-11-20T12:30:18;6.60;;;2.20;;
28481;SDS011;15703;49.588;6.260;2022-11-20T12:38:00;4.03;;;2.30;;
28481;SDS011;15703;49.588;6.260;2022-11-20T12:45:54;3.73;;;2.50;;
28481;SDS011;15703;49.588;6.260;2022-11-20T12:56:43;4.43;;;2.40;;
28481;SDS011;15703;49.588;6.260;2022-11-20T13:04:37;2.17;;;1.97;;
28481;SDS011;15703;49.588;6.260;2022-11-20T13:07:13;5.80;;;2.40;;
28481;SDS011;15703;49.588;6.260;2022-11-20T13:09:40;6.73;;;2.70;;
28481;SDS011;15703;49.588;6.260;2022-11-20T13:14:55;3.80;;;2.53;;
28481;SDS011;15703;49.588;6.260;2022-11-20T13:19:56;4.87;;;1.97;;
28481;SDS011;15703;49.588;6.260;2022-11-20T13:22:29;5.93;;;2.43;;
28481;SDS011;15703;49.588;6.260;2022-11-20T13:24:56;6.70;;;2.67;;
28481;SDS011;15703;49.588;6.260;2022-11-20T13:27:21;5.80;;;2.40;;
28481;SDS011;15703;49.588;6.260;2022-11-20T13:29:45;4.23;;;2.20;;
28481;SDS011;15703;49.588;6.260;2022-11-20T13:34:37;5.77;;;2.40;;
28481;SDS011;15703;49.588;6.260;2022-11-20T13:37:02;3.30;;;2.37;;
28481;SDS011;15703;49.588;6.260;2022-11-20T13:39:35;2.87;;;2.00;;
28481;SDS011;15703;49.588;6.260;2022-11-20T13:41:58;4.73;;;2.47;;
28481;SDS011;15703;49.588;6.260;2022-11-20T13:44:35;4.07;;;2.30;;
28481;SDS011;15703;49.588;6.260;2022-11-20T13:46:59;5.67;;;2.70;;
28481;SDS011;15703;49.588;6.260;2022-11-20T14:02:13;6.53;;;2.00;;
28481;SDS011;15703;49.588;6.260;2022-11-20T14:04:36;2.47;;;2.20;;
28481;SDS011;15703;49.588;6.260;2022-11-20T14:07:07;3.60;;;2.37;;
28481;SDS011;15703;49.588;6.260;2022-11-20T14:09:34;4.40;;;2.53;;
28481;SDS011;15703;49.588;6.260;2022-11-20T14:11:57;5.03;;;2.17;;
28481;SDS011;15703;49.588;6.260;2022-11-20T14:14:46;6.17;;;2.50;;
28481;SDS011;15703;49.588;6.260;2022-11-20T14:17:23;6.80;;;2.23;;
28481;SDS011;15703;49.588;6.260;2022-11-20T14:19:46;6.00;;;1.90;;
28481;SDS011;15703;49.588;6.260;2022-11-20T14:27:41;7.30;;;2.40;;
28481;SDS011;15703;49.588;6.260;2022-11-20T14:30:05;6.20;;;2.17;;
28481;SDS011;15703;49.588;6.260;2022-11-20T14:32:35;4.30;;;2.50;;
28481;SDS011;15703;49.588;6.260;2022-11-20T14:35:08;6.23;;;2.43;;
28481;SDS011;15703;49.588;6.260;2022-11-20T14:37:35;4.00;;;2.20;;
28481;SDS011;15703;49.588;6.260;2022-11-20T14:40:00;4.33;;;2.47;;
28481;SDS011;15703;49.588;6.260;2022-11-20T14:42:35;3.90;;;2.77;;
28481;SDS011;15703;49.588;6.260;2022-11-20T14:44:59;6.87;;;2.63;;
28481;SDS011;15703;49.588;6.260;2022-11-20T14:47:26;4.37;;;2.90;;
28481;SDS011;15703;49.588;6.260;2022-11-20T14:50:23;2.37;;;2.17;;
28481;SDS011;15703;49.588;6.260;2022-11-20T14:53:00;3.83;;;2.20;;
28481;SDS011;15703;49.588;6.260;2022-11-20T14:55:29;3.33;;;1.90;;
28481;SDS011;15703;49.588;6.260;2022-11-20T14:57:57;2.30;;;2.10;;
28481;SDS011;15703;49.588;6.260;2022-11-20T15:00:20;4.50;;;2.67;;
28481;SDS011;15703;49.588;6.260;2022-11-20T15:02:44;6.30;;;2.37;;
28481;SDS011;15703;49.588;6.260;2022-11-20T15:05:07;2.93;;;2.33;;
28481;SDS011;15703;49.588;6.260;2022-11-20T15:07:32;7.00;;;2.43;;
28481;SDS011;15703;49.588;6.260;2022-11-20T15:10:06;6.47;;;2.30;;
28481;SDS011;15703;49.588;6.260;2022-11-20T15:12:30;6.53;;;2.50;;
28481;SDS011;15703;49.588;6.260;2022-11-20T15:14:53;3.50;;;2.20;;
28481;SDS011;15703;49.588;6.260;2022-11-20T15:17:15;3.63;;;2.23;;
28481;SDS011;15703;49.588;6.260;2022-11-20T15:19:38;5.00;;;2.57;;
28481;SDS011;15703;49.588;6.260;2022-11-20T15:22:01;4.40;;;2.50;;
28481;SDS011;15703;49.588;6.260;2022-11-20T15:24:23;5.30;;;2.40;;
28481;SDS011;15703;49.588;6.260;2022-11-20T15:26:46;3.23;;;2.10;;
28481;SDS011;15703;49.588;6.260;2022-11-20T15:29:16;5.87;;;2.63;;
28481;SDS011;15703;49.588;6.260;2022-11-20T15:31:51;3.77;;;2.40;;
28481;SDS011;15703;49.588;6.260;2022-11-20T15:34:16;3.30;;;2.67;;
28481;SDS011;15703;49.588;6.260;2022-11-20T15:36:39;4.63;;;3.00;;
28481;SDS011;15703;49.588;6.260;2022-11-20T15:39:07;3.63;;;2.23;;
28481;SDS011;15703;49.588;6.260;2022-11-20T15:41:33;2.27;;;2.07;;
28481;SDS011;15703;49.588;6.260;2022-11-20T15:44:03;4.70;;;2.67;;
28481;SDS011;15703;49.588;6.260;2022-11-20T15:46:38;3.37;;;2.40;;
28481;SDS011;15703;49.588;6.260;2022-11-20T15:49:05;3.43;;;2.47;;
28481;SDS011;15703;49.588;6.260;2022-11-20T15:51:31;3.60;;;2.43;;
28481;SDS011;15703;49.588;6.260;2022-11-20T15:53:58;3.20;;;2.57;;
28481;SDS011;15703;49.588;6.260;2022-11-20T15:56:21;9.80;;;3.40;;
28481;SDS011;15703;49.588;6.260;2022-11-20T15:58:43;4.97;;;2.47;;
28481;SDS011;15703;49.588;6.260;2022-11-20T16:01:09;6.33;;;3.13;;
28481;SDS011;15703;49.588;6.260;2022-11-20T16:03:32;4.53;;;2.60;;
28481;SDS011;15703;49.588;6.260;2022-11-20T16:05:55;6.67;;;2.90;;
28481;SDS011;15703;49.588;6.260;2022-11-20T16:08:20;4.87;;;2.70;;
28481;SDS011;15703;49.588;6.260;2022-11-20T16:11:02;3.40;;;3.10;;